createdAt,value
2018-10-05T00:00:31.608Z,99.90
2018-10-05T00:03:00.751Z,99.90
2018-10-05T00:05:29.656Z,99.90
2018-10-05T00:07:59.054Z,99.90
2018-10-05T00:10:28.094Z,99.90
2018-10-05T00:12:57.661Z,99.90
2018-10-05T00:15:26.707Z,99.90
2018-10-05T00:17:55.715Z,99.90
2018-10-05T00:20:24.704Z,99.90
2018-10-05T00:22:54.175Z,99.90
2018-10-05T00:25:23.144Z,99.90
2018-10-05T00:27:52.120Z,99.90
2018-10-05T00:30:20.948Z,99.90
2018-10-05T00:32:49.740Z,99.90
2018-10-05T00:35:18.656Z,99.90
2018-10-05T00:37:47.472Z,99.90
2018-10-05T00:40:16.281Z,99.90
2018-10-05T00:42:45.087Z,99.90
2018-10-05T00:45:17.282Z,99.90
2018-10-05T00:47:46.241Z,99.90
2018-10-05T00:50:15.205Z,99.90
2018-10-05T00:52:44.027Z,99.90
2018-10-05T00:55:12.855Z,99.90
2018-10-05T00:57:41.680Z,99.90
2018-10-05T01:00:10.527Z,99.90
2018-10-05T01:02:39.448Z,99.90
2018-10-05T01:05:08.257Z,99.90
2018-10-05T01:07:37.086Z,99.90
2018-10-05T01:10:05.935Z,99.90
2018-10-05T01:12:34.801Z,99.90
2018-10-05T01:15:03.767Z,99.90
2018-10-05T01:17:32.639Z,99.90
2018-10-05T01:20:01.476Z,99.90
2018-10-05T01:22:30.395Z,99.90
2018-10-05T01:24:59.883Z,99.90
2018-10-05T01:27:28.619Z,99.90
2018-10-05T01:29:57.709Z,99.90
2018-10-05T01:32:26.528Z,99.90
2018-10-05T01:34:55.327Z,99.90
2018-10-05T01:37:24.160Z,99.90
2018-10-05T01:39:52.980Z,99.90
2018-10-05T01:42:21.817Z,99.90
2018-10-05T01:44:50.608Z,99.90
2018-10-05T01:47:19.441Z,99.90
2018-10-05T01:49:48.239Z,99.90
2018-10-05T01:52:17.048Z,99.90
2018-10-05T01:54:45.880Z,99.90
2018-10-05T01:57:14.729Z,99.90
2018-10-05T01:59:43.532Z,99.90
2018-10-05T02:02:12.348Z,99.90
2018-10-05T02:04:41.139Z,99.90
2018-10-05T02:07:09.956Z,99.90
2018-10-05T02:09:38.752Z,99.90
2018-10-05T02:12:07.589Z,99.90
2018-10-05T02:14:36.428Z,99.90
2018-10-05T02:17:05.311Z,99.90
2018-10-05T02:19:34.122Z,99.90
2018-10-05T02:22:02.956Z,99.90
2018-10-05T02:24:31.750Z,99.90
2018-10-05T02:27:00.584Z,99.90
2018-10-05T02:29:29.411Z,99.90
2018-10-05T02:31:58.262Z,99.90
2018-10-05T02:34:27.032Z,99.90
2018-10-05T02:36:55.880Z,99.90
2018-10-05T02:39:24.684Z,99.90
2018-10-05T02:41:53.554Z,99.90
2018-10-05T02:44:22.321Z,99.90
2018-10-05T02:46:51.137Z,99.90
2018-10-05T02:49:19.953Z,99.90
2018-10-05T02:51:48.741Z,99.90
2018-10-05T02:54:17.554Z,99.90
2018-10-05T02:56:46.337Z,99.90
2018-10-05T02:59:15.152Z,99.90
2018-10-05T03:01:55.365Z,99.90
2018-10-05T03:04:24.148Z,99.90
2018-10-05T03:06:52.968Z,99.90
2018-10-05T03:09:21.857Z,99.90
2018-10-05T03:11:50.671Z,99.90
2018-10-05T03:14:19.498Z,99.90
2018-10-05T03:16:48.459Z,99.90
2018-10-05T03:19:19.280Z,99.90
2018-10-05T03:21:48.226Z,99.90
2018-10-05T03:24:17.085Z,99.90
2018-10-05T03:26:45.864Z,99.90
2018-10-05T03:29:14.702Z,99.90
2018-10-05T03:31:43.530Z,99.90
2018-10-05T03:34:12.364Z,99.90
2018-10-05T03:36:41.156Z,99.90
2018-10-05T03:39:10.008Z,99.90
2018-10-05T03:41:38.813Z,99.90
2018-10-05T03:44:07.632Z,99.90
2018-10-05T03:46:36.403Z,99.90
2018-10-05T03:49:05.562Z,99.90
2018-10-05T03:51:34.300Z,99.90
2018-10-05T03:54:03.177Z,99.90
2018-10-05T03:56:31.955Z,99.90
2018-10-05T03:59:00.800Z,99.90
2018-10-05T04:01:29.605Z,99.90
2018-10-05T04:03:58.428Z,99.90
2018-10-05T04:06:27.240Z,99.90
2018-10-05T04:08:56.072Z,99.90
2018-10-05T04:11:24.887Z,99.90
2018-10-05T04:13:53.705Z,99.90
2018-10-05T04:16:22.512Z,99.90
2018-10-05T04:18:51.445Z,99.90
2018-10-05T04:21:20.588Z,99.90
2018-10-05T04:23:49.372Z,99.90
2018-10-05T04:26:18.180Z,99.90
2018-10-05T04:28:46.507Z,99.90
2018-10-05T04:31:14.779Z,99.90
2018-10-05T04:33:43.088Z,99.90
2018-10-05T04:36:11.409Z,99.90
2018-10-05T04:38:39.702Z,99.90
2018-10-05T04:41:08.094Z,99.90
2018-10-05T04:43:36.335Z,99.90
2018-10-05T04:46:04.653Z,99.90
2018-10-05T04:48:32.959Z,99.90
2018-10-05T04:51:01.272Z,99.90
2018-10-05T04:53:29.621Z,99.90
2018-10-05T04:55:57.907Z,99.90
2018-10-05T04:58:26.205Z,99.90
2018-10-05T05:00:54.528Z,99.90
2018-10-05T05:03:22.868Z,99.90
2018-10-05T05:05:51.168Z,99.90
2018-10-05T05:08:19.484Z,99.90
2018-10-05T05:10:47.813Z,99.90
2018-10-05T05:13:16.277Z,99.90
2018-10-05T05:15:44.567Z,99.90
2018-10-05T05:18:12.912Z,99.90
2018-10-05T05:20:41.196Z,99.90
2018-10-05T05:23:10.648Z,99.90
2018-10-05T05:25:39.016Z,99.90
2018-10-05T05:28:07.440Z,99.90
2018-10-05T05:30:35.732Z,99.90
2018-10-05T05:33:04.064Z,99.90
2018-10-05T05:35:32.426Z,99.90
2018-10-05T05:38:00.719Z,99.90
2018-10-05T05:40:29.045Z,99.90
2018-10-05T05:42:57.341Z,99.90
2018-10-05T05:45:25.692Z,99.90
2018-10-05T05:47:54.884Z,99.90
2018-10-05T05:50:23.155Z,99.90
2018-10-05T05:52:51.984Z,99.90
2018-10-05T05:55:20.292Z,99.90
2018-10-05T05:57:48.575Z,99.90
2018-10-05T06:00:16.871Z,99.90
2018-10-05T06:02:45.149Z,99.90
2018-10-05T06:05:13.469Z,99.90
2018-10-05T06:07:41.767Z,99.90
2018-10-05T06:10:10.080Z,99.90
2018-10-05T06:12:38.433Z,99.90
2018-10-05T06:15:06.749Z,99.90
2018-10-05T06:17:35.073Z,99.90
2018-10-05T06:20:03.504Z,99.90
2018-10-05T06:22:32.040Z,99.90
2018-10-05T06:25:01.320Z,99.90
2018-10-05T06:27:29.963Z,99.90
2018-10-05T06:29:58.248Z,99.90
2018-10-05T06:32:26.624Z,99.90
2018-10-05T06:34:55.004Z,99.90
2018-10-05T06:37:26.937Z,99.90
2018-10-05T06:39:55.357Z,99.90
2018-10-05T06:42:23.724Z,99.90
2018-10-05T06:44:52.069Z,99.90
2018-10-05T06:47:20.311Z,99.90
2018-10-05T06:49:48.648Z,99.90
2018-10-05T06:52:17.288Z,99.90
2018-10-05T06:54:45.605Z,99.90
2018-10-05T06:57:13.882Z,99.90
2018-10-05T06:59:42.196Z,99.90
2018-10-05T07:02:10.480Z,99.90
2018-10-05T07:04:38.768Z,99.90
2018-10-05T07:07:07.178Z,99.90
2018-10-05T07:09:35.492Z,99.90
2018-10-05T07:12:03.807Z,99.90
2018-10-05T07:14:32.145Z,99.90
2018-10-05T07:17:00.465Z,99.90
2018-10-05T07:19:28.804Z,99.90
2018-10-05T07:21:57.122Z,99.90
2018-10-05T07:24:25.444Z,99.90
2018-10-05T07:26:53.760Z,99.90
2018-10-05T07:29:22.072Z,99.90
2018-10-05T07:31:50.392Z,99.90
2018-10-05T07:34:18.723Z,99.90
2018-10-05T07:36:47.077Z,99.90
2018-10-05T07:39:15.390Z,99.90
2018-10-05T07:41:43.715Z,99.90
2018-10-05T07:44:12.118Z,99.90
2018-10-05T07:46:40.432Z,99.90
2018-10-05T07:49:08.780Z,99.90
2018-10-05T07:51:37.154Z,99.90
2018-10-05T07:54:05.511Z,99.90
2018-10-05T07:56:33.922Z,99.90
2018-10-05T07:59:02.257Z,99.90
2018-10-05T08:01:30.572Z,99.90
2018-10-05T08:03:58.897Z,99.90
2018-10-05T08:06:27.219Z,99.90
2018-10-05T08:08:55.628Z,99.90
2018-10-05T08:11:23.956Z,99.90
2018-10-05T08:13:52.341Z,99.90
2018-10-05T08:16:20.675Z,99.90
2018-10-05T08:18:49.076Z,99.90
2018-10-05T08:21:17.449Z,99.90
2018-10-05T08:23:45.787Z,99.90
2018-10-05T08:26:14.163Z,99.90
2018-10-05T08:28:42.509Z,99.90
2018-10-05T08:31:10.814Z,99.90
2018-10-05T08:33:39.346Z,99.90
2018-10-05T08:36:07.716Z,99.90
2018-10-05T08:38:36.100Z,99.90
2018-10-05T08:41:04.423Z,99.90
2018-10-05T08:43:32.743Z,99.90
2018-10-05T08:46:01.223Z,99.90
2018-10-05T08:48:29.417Z,99.90
2018-10-05T08:50:57.725Z,99.90
2018-10-05T08:53:26.024Z,99.90
2018-10-05T08:55:54.335Z,99.90
2018-10-05T08:58:22.651Z,99.90
2018-10-05T09:00:51.036Z,99.90
2018-10-05T09:03:19.752Z,99.90
2018-10-05T09:05:48.122Z,99.90
2018-10-05T09:08:16.352Z,99.90
2018-10-05T09:10:44.675Z,99.90
2018-10-05T09:13:13.063Z,99.90
2018-10-05T09:15:41.385Z,99.90
2018-10-05T09:18:11.825Z,99.90
2018-10-05T09:20:40.288Z,99.90
2018-10-05T09:23:08.908Z,99.90
2018-10-05T09:25:37.205Z,99.90
2018-10-05T09:28:05.499Z,99.90
2018-10-05T09:30:33.887Z,99.90
2018-10-05T09:33:02.129Z,99.90
2018-10-05T09:35:30.462Z,99.90
2018-10-05T09:37:58.902Z,99.90
2018-10-05T09:40:27.132Z,99.90
2018-10-05T09:42:55.439Z,99.90
2018-10-05T09:45:23.852Z,99.90
2018-10-05T09:47:52.091Z,99.90
2018-10-05T09:50:20.407Z,99.90
2018-10-05T09:52:48.930Z,99.90
2018-10-05T09:55:17.173Z,99.90
2018-10-05T09:57:45.484Z,99.90
2018-10-05T10:00:19.292Z,99.90
2018-10-05T10:02:47.578Z,99.90
2018-10-05T10:05:15.882Z,99.90
2018-10-05T10:07:44.208Z,99.90
2018-10-05T10:10:12.504Z,99.90
2018-10-05T10:12:40.815Z,99.90
2018-10-05T10:15:09.124Z,99.90
2018-10-05T10:17:37.401Z,99.90
2018-10-05T10:20:05.793Z,99.90
2018-10-05T10:22:34.111Z,99.90
2018-10-05T10:25:02.424Z,99.90
2018-10-05T10:27:30.790Z,99.90
2018-10-05T10:29:59.076Z,99.90
2018-10-05T10:32:27.371Z,99.90
2018-10-05T10:34:55.702Z,99.90
2018-10-05T10:37:23.998Z,99.90
2018-10-05T10:39:52.322Z,99.90
2018-10-05T10:42:20.574Z,99.90
2018-10-05T10:44:48.886Z,99.90
2018-10-05T10:47:17.168Z,99.90
2018-10-05T10:49:45.472Z,99.90
2018-10-05T10:52:13.743Z,99.90
2018-10-05T10:54:42.067Z,99.90
2018-10-05T10:57:10.363Z,99.90
2018-10-05T10:59:38.671Z,99.90
2018-10-05T11:02:06.955Z,99.90
2018-10-05T11:04:35.437Z,99.90
2018-10-05T11:07:03.620Z,99.90
2018-10-05T11:09:31.944Z,99.90
2018-10-05T11:12:00.374Z,99.90
2018-10-05T11:14:28.736Z,99.90
2018-10-05T11:17:05.405Z,99.90
2018-10-05T11:19:33.712Z,99.90
2018-10-05T11:22:02.078Z,99.90
2018-10-05T11:24:30.568Z,99.90
2018-10-05T11:26:59.319Z,99.90
2018-10-05T11:29:27.778Z,99.90
2018-10-05T11:31:56.036Z,98.80
2018-10-05T11:34:24.368Z,99.90
2018-10-05T11:36:52.671Z,99.00
2018-10-05T11:39:21.025Z,99.30
2018-10-05T11:41:49.396Z,98.10
2018-10-05T11:44:17.910Z,97.90
2018-10-05T11:46:46.226Z,97.60
2018-10-05T11:49:14.532Z,99.30
2018-10-05T11:51:42.886Z,98.60
2018-10-05T11:54:11.260Z,96.70
2018-10-05T11:56:39.608Z,96.50
2018-10-05T11:59:08.280Z,94.90
2018-10-05T12:01:36.680Z,95.00
2018-10-05T12:04:05.145Z,93.90
2018-10-05T12:06:33.527Z,94.00
2018-10-05T12:09:01.890Z,91.90
2018-10-05T12:11:30.321Z,93.40
2018-10-05T12:13:58.770Z,90.50
2018-10-05T12:16:27.174Z,91.90
2018-10-05T12:18:55.633Z,92.00
2018-10-05T12:21:23.988Z,91.90
2018-10-05T12:23:52.288Z,91.40
2018-10-05T12:26:20.788Z,92.70
2018-10-05T12:28:49.080Z,91.80
2018-10-05T12:31:17.480Z,91.80
2018-10-05T12:33:45.921Z,91.20
2018-10-05T12:36:15.231Z,89.40
2018-10-05T12:38:43.579Z,87.50
2018-10-05T12:41:11.908Z,90.40
2018-10-05T12:43:40.247Z,85.80
2018-10-05T12:46:08.568Z,85.60
2018-10-05T12:48:36.936Z,88.20
2018-10-05T12:51:05.261Z,84.90
2018-10-05T12:53:33.609Z,86.60
2018-10-05T12:56:01.937Z,83.00
2018-10-05T12:58:30.230Z,81.00
2018-10-05T13:00:58.545Z,85.60
2018-10-05T13:03:26.852Z,81.90
2018-10-05T13:05:55.183Z,82.10
2018-10-05T13:08:23.500Z,84.90
2018-10-05T13:10:51.833Z,83.70
2018-10-05T13:13:20.123Z,83.80
2018-10-05T13:15:48.645Z,82.80
2018-10-05T13:18:16.929Z,80.70
2018-10-05T13:20:45.264Z,80.90
2018-10-05T13:23:13.543Z,82.10
2018-10-05T13:25:41.829Z,80.50
2018-10-05T13:28:10.131Z,76.10
2018-10-05T13:30:38.404Z,76.30
2018-10-05T13:33:06.704Z,77.40
2018-10-05T13:35:35.002Z,78.10
2018-10-05T13:38:03.324Z,76.30
2018-10-05T13:40:31.649Z,79.20
2018-10-05T13:42:59.992Z,79.40
2018-10-05T13:45:28.730Z,77.50
2018-10-05T13:47:57.030Z,74.50
2018-10-05T13:50:25.309Z,73.20
2018-10-05T13:52:53.624Z,73.40
2018-10-05T13:55:21.959Z,72.80
2018-10-05T13:57:50.306Z,73.80
2018-10-05T14:00:18.606Z,73.90
2018-10-05T14:02:46.972Z,73.80
2018-10-05T14:05:15.280Z,73.90
2018-10-05T14:07:43.579Z,74.50
2018-10-05T14:10:11.909Z,74.80
2018-10-05T14:12:40.235Z,74.10
2018-10-05T14:15:08.651Z,74.30
2018-10-05T14:17:36.896Z,75.10
2018-10-05T14:20:05.240Z,74.10
2018-10-05T14:22:33.512Z,73.40
2018-10-05T14:25:01.820Z,73.70
2018-10-05T14:27:30.120Z,73.30
2018-10-05T14:29:58.421Z,73.70
2018-10-05T14:32:26.703Z,74.10
2018-10-05T14:34:54.990Z,76.40
2018-10-05T14:37:23.301Z,75.60
2018-10-05T14:39:51.601Z,75.70
2018-10-05T14:42:19.956Z,76.40
2018-10-05T14:44:48.239Z,76.90
2018-10-05T14:47:16.560Z,77.20
2018-10-05T14:49:44.868Z,78.80
2018-10-05T14:52:13.400Z,81.40
2018-10-05T14:54:41.730Z,78.60
2018-10-05T14:57:10.194Z,79.10
2018-10-05T14:59:38.392Z,79.30
2018-10-05T15:02:06.691Z,81.80
2018-10-05T15:04:34.996Z,80.90
2018-10-05T15:07:03.381Z,81.30
2018-10-05T15:09:31.623Z,80.90
2018-10-05T15:11:59.898Z,82.10
2018-10-05T15:14:28.226Z,79.60
2018-10-05T15:16:56.535Z,78.60
2018-10-05T15:19:24.808Z,78.30
2018-10-05T15:21:53.117Z,77.80
2018-10-05T15:24:21.452Z,78.10
2018-10-05T15:26:49.770Z,78.80
2018-10-05T15:29:18.052Z,79.30
2018-10-05T15:31:46.383Z,79.10
2018-10-05T15:34:14.655Z,80.20
2018-10-05T15:36:43.163Z,80.70
2018-10-05T15:39:11.432Z,81.90
2018-10-05T15:41:39.812Z,85.00
2018-10-05T15:44:08.119Z,82.60
2018-10-05T15:47:10.689Z,84.60
2018-10-05T15:49:39.707Z,85.40
2018-10-05T15:52:08.054Z,83.00
2018-10-05T15:54:36.436Z,82.60
2018-10-05T15:57:04.839Z,85.50
2018-10-05T15:59:34.148Z,86.30
2018-10-05T16:02:02.495Z,85.60
2018-10-05T16:04:30.998Z,88.40
2018-10-05T16:06:59.544Z,88.60
2018-10-05T16:09:27.948Z,88.90
2018-10-05T16:11:56.377Z,90.10
2018-10-05T16:14:25.589Z,91.40
2018-10-05T16:16:53.885Z,91.70
2018-10-05T16:19:22.297Z,92.80
2018-10-05T16:21:50.773Z,94.20
2018-10-05T16:24:21.036Z,94.20
2018-10-05T16:26:49.519Z,95.30
2018-10-05T16:29:17.840Z,96.60
2018-10-05T16:31:46.136Z,97.90
2018-10-05T16:34:14.448Z,98.30
2018-10-05T16:36:42.725Z,99.80
2018-10-05T16:39:11.898Z,99.90
2018-10-05T16:41:40.191Z,99.90
2018-10-05T16:44:08.800Z,99.90
2018-10-05T16:46:38.761Z,99.90
2018-10-05T16:49:08.420Z,99.90
2018-10-05T16:51:36.804Z,99.90
2018-10-05T16:54:05.173Z,99.90
2018-10-05T16:56:33.502Z,99.90
2018-10-05T16:59:02.354Z,99.90
2018-10-05T17:01:30.636Z,99.90
2018-10-05T17:03:59.003Z,99.90
2018-10-05T17:06:27.369Z,99.90
2018-10-05T17:08:59.108Z,99.90
2018-10-05T17:11:27.467Z,99.90
2018-10-05T17:13:55.835Z,99.90
2018-10-05T17:16:24.152Z,99.90
2018-10-05T17:18:52.488Z,99.90
2018-10-05T17:21:20.773Z,99.90
2018-10-05T17:23:49.050Z,99.90
2018-10-05T17:26:17.365Z,99.90
2018-10-05T17:28:45.641Z,99.90
2018-10-05T17:31:13.944Z,99.90
2018-10-05T17:33:42.313Z,99.90
2018-10-05T17:36:10.711Z,99.90
2018-10-05T17:38:39.104Z,99.90
2018-10-05T17:41:07.676Z,99.90
2018-10-05T17:43:35.980Z,99.90
2018-10-05T17:46:04.495Z,99.90
2018-10-05T17:48:32.856Z,99.90
2018-10-05T17:51:01.292Z,99.90
2018-10-05T17:53:29.584Z,99.90
2018-10-05T17:55:57.890Z,99.90
2018-10-05T17:58:26.441Z,99.90
2018-10-05T18:00:55.116Z,99.90
2018-10-05T18:03:23.425Z,99.90
2018-10-05T18:05:51.767Z,99.90
2018-10-05T18:08:20.153Z,99.90
2018-10-05T18:10:48.368Z,99.90
2018-10-05T18:13:16.735Z,99.90
2018-10-05T18:15:47.090Z,99.90
2018-10-05T18:18:18.043Z,99.90
2018-10-05T18:20:46.491Z,99.90
2018-10-05T18:23:14.939Z,99.90
2018-10-05T18:25:43.274Z,99.90
2018-10-05T18:28:11.623Z,99.90
2018-10-05T18:30:40.003Z,99.90
2018-10-05T18:33:08.337Z,99.90
2018-10-05T18:35:36.676Z,99.90
2018-10-05T18:38:05.057Z,99.90
2018-10-05T18:40:33.364Z,99.90
2018-10-05T18:43:01.734Z,99.90
2018-10-05T18:45:30.029Z,99.90
2018-10-05T18:47:58.357Z,99.90
2018-10-05T18:50:26.664Z,99.90
2018-10-05T18:52:54.986Z,99.90
2018-10-05T18:55:23.284Z,99.90
2018-10-05T18:57:51.612Z,99.90
2018-10-05T19:00:19.978Z,99.90
2018-10-05T19:02:48.259Z,99.90
2018-10-05T19:05:16.599Z,99.90
2018-10-05T19:07:44.907Z,99.90
2018-10-05T19:10:13.181Z,99.90
2018-10-05T19:12:41.499Z,99.90
2018-10-05T19:15:09.804Z,99.90
2018-10-05T19:17:38.394Z,99.90
2018-10-05T19:20:06.779Z,99.90
2018-10-05T19:22:35.169Z,99.90
2018-10-05T19:25:03.500Z,99.90
2018-10-05T19:27:31.945Z,99.90
2018-10-05T19:30:00.272Z,99.90
2018-10-05T19:32:28.676Z,99.90
2018-10-05T19:34:57.055Z,99.90
2018-10-05T19:37:25.364Z,99.90
2018-10-05T19:39:53.692Z,99.90
2018-10-05T19:42:21.992Z,99.90
2018-10-05T19:44:50.293Z,99.90
2018-10-05T19:47:18.620Z,99.90
2018-10-05T19:49:46.896Z,99.90
2018-10-05T19:52:15.189Z,99.90
2018-10-05T19:54:43.477Z,99.90
2018-10-05T19:57:11.816Z,99.90
2018-10-05T19:59:40.108Z,99.90
2018-10-05T20:02:08.730Z,99.90
2018-10-05T20:04:37.495Z,99.90
2018-10-05T20:20:15.704Z,99.90
2018-10-05T20:22:44.552Z,99.90
2018-10-05T20:25:13.377Z,99.90
2018-10-05T20:27:42.263Z,99.90
2018-10-05T20:30:11.232Z,99.90
2018-10-05T20:32:40.111Z,99.90
2018-10-05T20:35:08.868Z,99.90
2018-10-05T20:37:38.022Z,99.90
2018-10-05T20:40:06.616Z,99.90
2018-10-05T20:42:35.452Z,99.90
2018-10-05T20:45:04.673Z,99.90
2018-10-05T20:47:33.519Z,99.90
2018-10-05T20:50:02.625Z,99.90
2018-10-05T20:52:31.420Z,99.90
2018-10-05T20:55:00.247Z,99.90
2018-10-05T20:57:29.235Z,99.90
2018-10-05T20:59:58.092Z,99.90
2018-10-05T21:02:27.183Z,99.90
2018-10-05T21:04:56.801Z,99.90
2018-10-05T21:07:25.619Z,99.90
2018-10-05T21:09:54.418Z,99.90
2018-10-05T21:12:23.525Z,99.90
2018-10-05T21:14:52.352Z,99.90
2018-10-05T21:17:21.680Z,99.90
2018-10-05T21:19:50.644Z,99.90
2018-10-05T21:22:19.496Z,99.90
2018-10-05T21:24:48.424Z,99.90
2018-10-05T21:27:18.900Z,99.90
2018-10-05T21:29:47.860Z,99.90
2018-10-05T21:32:17.693Z,99.90
2018-10-05T21:34:46.526Z,99.90
2018-10-05T21:37:15.488Z,99.90
2018-10-05T21:39:44.333Z,99.90
2018-10-05T21:42:13.348Z,99.90
2018-10-05T21:44:42.287Z,99.90
2018-10-05T21:47:11.119Z,99.90
2018-10-05T21:49:40.085Z,99.90
2018-10-05T21:52:08.927Z,99.90
2018-10-05T21:54:38.876Z,99.90
2018-10-05T21:57:07.802Z,99.90
2018-10-05T21:59:36.603Z,99.90
2018-10-05T22:02:06.895Z,99.90
2018-10-05T22:04:35.935Z,99.90
2018-10-05T22:07:04.755Z,99.90
2018-10-05T22:09:33.532Z,99.90
2018-10-05T22:12:02.401Z,99.90
2018-10-05T22:14:31.282Z,99.90
2018-10-05T22:17:00.421Z,99.90
2018-10-05T22:19:29.406Z,99.90
2018-10-05T22:21:58.313Z,99.90
2018-10-05T22:24:27.148Z,99.90
2018-10-05T22:26:55.983Z,99.90
2018-10-05T22:29:24.852Z,99.90
2018-10-05T22:31:53.671Z,99.90
2018-10-05T22:34:22.563Z,99.90
2018-10-05T22:36:51.496Z,99.90
2018-10-05T22:39:20.525Z,99.90
2018-10-05T22:41:49.398Z,99.90
2018-10-05T22:44:18.266Z,99.90
2018-10-05T22:46:47.241Z,99.90
2018-10-05T22:49:16.240Z,99.90
2018-10-05T22:51:45.167Z,99.90
2018-10-05T22:54:13.940Z,99.90
2018-10-05T22:56:44.455Z,99.90
2018-10-05T22:59:13.576Z,99.90
2018-10-05T23:01:42.383Z,99.90
2018-10-05T23:04:11.908Z,99.90
2018-10-05T23:06:40.728Z,99.90
2018-10-05T23:09:10.013Z,99.90
2018-10-05T23:11:38.931Z,99.90
2018-10-05T23:14:07.712Z,99.90
2018-10-05T23:16:36.598Z,99.90
2018-10-05T23:19:06.114Z,99.90
2018-10-05T23:21:35.012Z,99.90
2018-10-05T23:24:03.843Z,99.90
2018-10-05T23:26:32.755Z,99.90
2018-10-05T23:29:01.593Z,99.90
2018-10-05T23:31:30.456Z,99.90
2018-10-05T23:33:59.302Z,99.90
2018-10-05T23:36:28.192Z,99.90
2018-10-05T23:38:57.572Z,99.90
2018-10-05T23:41:26.512Z,99.90
2018-10-05T23:43:56.567Z,99.90
2018-10-05T23:46:25.383Z,99.90
2018-10-05T23:48:54.276Z,99.90
2018-10-05T23:51:23.096Z,99.90
2018-10-05T23:53:52.001Z,99.90
2018-10-05T23:56:21.021Z,99.90
2018-10-05T23:58:49.900Z,99.90
